createdAt,value
2023-01-26T03:00:54.423Z,36.25
2023-01-26T03:03:27.607Z,33.75
2023-01-26T03:05:58.598Z,30.75
2023-01-26T03:08:30.878Z,33.75
2023-01-26T03:11:02.175Z,27.50
2023-01-26T03:13:32.645Z,32.25
2023-01-26T03:16:04.596Z,31.50
2023-01-26T03:18:42.283Z,33.75
2023-01-26T03:21:15.314Z,34.75
2023-01-26T03:23:45.873Z,34.00
2023-01-26T03:26:16.254Z,24.00
2023-01-26T03:28:46.778Z,28.25
2023-01-26T03:31:17.020Z,37.50
2023-01-26T03:33:47.448Z,31.25
2023-01-26T03:36:17.805Z,36.25
2023-01-26T03:38:48.171Z,40.25
2023-01-26T03:41:18.925Z,24.00
2023-01-26T03:43:50.104Z,32.75
2023-01-26T03:46:20.755Z,35.25
2023-01-26T03:48:52.671Z,20.50
2023-01-26T03:51:22.994Z,38.00
2023-01-26T03:53:54.011Z,28.50
2023-01-26T03:56:26.298Z,41.25
2023-01-26T03:58:59.797Z,32.75
2023-01-26T04:01:36.521Z,32.00
2023-01-26T04:04:11.926Z,36.00
2023-01-26T04:06:45.622Z,34.25
2023-01-26T04:09:16.093Z,28.00
2023-01-26T04:11:47.697Z,33.50
2023-01-26T04:14:18.359Z,34.75
2023-01-26T04:16:48.981Z,31.50
2023-01-26T04:19:19.950Z,30.50
2023-01-26T04:21:50.212Z,37.00
2023-01-26T04:24:21.251Z,18.50
2023-01-26T04:26:52.309Z,36.50
2023-01-26T04:29:24.084Z,36.50
2023-01-26T04:31:55.584Z,33.75
2023-01-26T04:34:26.233Z,33.25
2023-01-26T04:36:57.720Z,27.25
2023-01-26T04:39:28.765Z,31.75
2023-01-26T04:41:59.287Z,16.00
2023-01-26T04:44:31.640Z,26.50
2023-01-26T04:47:03.920Z,22.75
2023-01-26T04:49:35.320Z,32.25
2023-01-26T04:52:26.572Z,33.50
2023-01-26T04:54:57.992Z,33.75
2023-01-26T04:57:28.752Z,42.50
2023-01-26T04:59:59.249Z,42.75
2023-01-26T05:02:31.426Z,44.00
2023-01-26T05:05:01.818Z,31.75
2023-01-26T05:07:35.326Z,35.00
2023-01-26T05:10:09.555Z,37.25
2023-01-26T05:12:46.269Z,35.75
2023-01-26T05:15:17.820Z,36.25
2023-01-26T05:17:49.206Z,34.50
2023-01-26T05:20:43.239Z,34.75
2023-01-26T05:23:17.844Z,38.75
2023-01-26T05:25:49.647Z,40.25
2023-01-26T05:28:21.733Z,38.00
2023-01-26T05:30:53.872Z,41.00
2023-01-26T05:33:26.024Z,41.25
2023-01-26T05:36:14.429Z,42.25
2023-01-26T05:38:50.402Z,42.50
2023-01-26T05:41:45.330Z,38.00
2023-01-26T05:44:46.273Z,38.75
2023-01-26T05:47:21.295Z,38.50
2023-01-26T05:50:00.584Z,42.75
2023-01-26T05:52:31.724Z,40.50
2023-01-26T05:55:05.254Z,41.25
2023-01-26T05:57:35.823Z,42.25
2023-01-26T06:00:09.283Z,43.25
2023-01-26T06:02:40.489Z,44.25
2023-01-26T06:05:11.986Z,31.75
2023-01-26T06:07:43.672Z,45.50
2023-01-26T06:10:22.205Z,43.25
2023-01-26T06:12:53.996Z,43.25
2023-01-26T06:15:24.283Z,41.50
2023-01-26T06:17:54.873Z,43.50
2023-01-26T06:20:25.232Z,43.75
2023-01-26T06:23:17.987Z,42.50
2023-01-26T06:25:49.229Z,40.00
2023-01-26T06:28:20.397Z,45.25
2023-01-26T06:30:52.635Z,41.50
2023-01-26T06:33:24.412Z,45.25
2023-01-26T06:35:58.983Z,45.75
2023-01-26T06:38:33.324Z,38.75
2023-01-26T06:41:07.758Z,39.50
2023-01-26T06:43:45.279Z,43.50
2023-01-26T06:46:12.935Z,48.25
2023-01-26T06:52:06.094Z,51.75
2023-01-26T06:54:37.617Z,50.25
2023-01-26T06:57:09.831Z,55.25
2023-01-26T06:59:41.037Z,51.25
2023-01-26T07:02:17.977Z,51.50
2023-01-26T07:04:50.105Z,46.75
2023-01-26T07:07:23.175Z,44.75
2023-01-26T07:09:54.506Z,48.75
2023-01-26T07:12:26.254Z,51.00
2023-01-26T07:14:59.433Z,51.75
2023-01-26T07:23:21.757Z,53.50
2023-01-26T07:25:56.497Z,47.25
2023-01-26T11:04:07.876Z,42.00
2023-01-26T11:06:39.064Z,43.00
2023-01-26T11:09:36.599Z,38.75
2023-01-26T11:12:12.180Z,38.75
2023-01-26T11:14:46.615Z,41.25
2023-01-26T11:17:23.746Z,35.00
2023-01-26T11:20:03.450Z,39.50
2023-01-26T11:22:46.292Z,37.50
2023-01-26T11:25:29.987Z,42.75
2023-01-26T11:31:40.292Z,40.50
2023-01-26T11:34:47.923Z,43.50
2023-01-26T11:37:46.079Z,41.50
2023-01-26T11:40:19.387Z,38.00
2023-01-26T11:43:18.947Z,23.50
2023-01-26T11:46:13.103Z,38.75
2023-01-26T11:48:51.107Z,34.25
2023-01-26T11:51:45.268Z,38.75
2023-01-26T11:54:49.075Z,39.00
2023-01-26T11:57:38.379Z,43.50
2023-01-26T12:00:30.131Z,41.25
2023-01-26T12:03:01.694Z,38.00
2023-01-26T12:08:28.148Z,42.75
2023-01-26T12:11:02.088Z,38.00
2023-01-26T12:13:37.697Z,34.00
2023-01-26T12:16:21.819Z,39.50
2023-01-26T12:19:12.951Z,34.25
2023-01-26T12:21:45.978Z,41.75
2023-01-26T12:24:54.080Z,45.75
2023-01-26T12:26:58.294Z,40.50
2023-01-26T12:29:31.485Z,41.00
2023-01-26T12:32:10.907Z,44.25
2023-01-26T12:34:41.244Z,41.00
2023-01-26T12:37:31.435Z,35.50
2023-01-26T12:40:27.057Z,38.75
2023-01-26T12:43:21.831Z,41.25
2023-01-26T12:45:55.185Z,40.75
2023-01-26T12:48:44.763Z,39.00
2023-01-26T12:51:19.312Z,35.00
2023-01-26T12:54:07.140Z,40.25
2023-01-26T12:56:45.933Z,42.00
2023-01-26T12:59:46.900Z,36.50
2023-01-26T13:02:14.151Z,40.75
2023-01-26T13:04:49.020Z,37.25
2023-01-26T13:07:43.978Z,35.75
2023-01-26T13:10:21.609Z,39.25
2023-01-26T13:13:12.141Z,35.00
2023-01-26T13:15:44.936Z,34.25
2023-01-26T13:18:25.978Z,40.75
2023-01-26T13:20:57.021Z,50.75
2023-01-26T13:23:44.703Z,44.25
2023-01-26T13:26:29.444Z,49.75
2023-01-26T13:32:28.971Z,41.00
2023-01-26T13:35:06.288Z,36.50
2023-01-26T13:37:57.281Z,31.75
2023-01-26T13:40:40.839Z,34.25
2023-01-26T13:43:30.479Z,40.00
2023-01-26T13:46:27.810Z,36.50
2023-01-26T13:49:03.426Z,46.25
2023-01-26T13:51:37.246Z,46.50
2023-01-26T13:54:35.128Z,48.25
2023-01-26T13:57:07.899Z,45.25
2023-01-26T13:59:50.361Z,45.25
2023-01-26T14:02:43.730Z,48.50
2023-01-26T14:05:27.798Z,41.00
2023-01-26T14:07:59.791Z,46.25
2023-01-26T14:10:31.319Z,37.00
2023-01-26T14:13:07.657Z,35.75
2023-01-26T14:15:41.727Z,40.25
2023-01-26T14:18:17.555Z,45.25
2023-01-26T14:20:47.972Z,44.00
2023-01-26T14:23:20.475Z,46.00
2023-01-26T14:26:02.689Z,45.25
2023-01-26T14:28:39.559Z,43.75
2023-01-26T14:31:18.851Z,49.25
2023-01-26T14:33:54.866Z,45.75
2023-01-26T14:36:30.709Z,46.75
2023-01-26T14:39:01.313Z,50.00
2023-01-26T14:41:38.326Z,47.25
2023-01-26T14:44:10.402Z,47.75
2023-01-26T14:47:03.306Z,49.75
2023-01-26T14:49:53.984Z,45.25
2023-01-26T14:52:36.040Z,43.00
2023-01-26T14:55:11.486Z,40.25
2023-01-26T14:57:43.290Z,40.50
2023-01-26T15:00:38.609Z,45.25
2023-01-26T15:03:15.262Z,44.75
2023-01-26T15:05:46.105Z,45.00
2023-01-26T15:08:25.149Z,48.75
2023-01-26T15:11:03.753Z,43.50
2023-01-26T15:13:41.568Z,45.50
2023-01-26T15:19:14.363Z,43.00
2023-01-26T15:21:47.544Z,47.50
2023-01-26T15:24:18.278Z,50.50
2023-01-26T15:26:50.821Z,47.00
2023-01-26T15:29:28.253Z,49.75
2023-01-26T15:31:59.122Z,50.25
2023-01-26T15:34:40.523Z,55.25
2023-01-26T15:37:34.548Z,54.00
2023-01-26T15:40:05.924Z,51.75
2023-01-26T15:42:36.413Z,55.00
2023-01-26T15:45:26.339Z,52.00
2023-01-26T15:51:00.646Z,54.00
2023-01-26T15:53:36.857Z,54.75
2023-01-26T15:56:10.936Z,51.50
2023-01-26T15:58:42.744Z,51.50
2023-01-26T16:01:22.955Z,50.00
2023-01-26T16:03:53.855Z,54.75
2023-01-26T16:06:28.812Z,53.25
2023-01-26T16:11:41.065Z,49.00
2023-01-26T16:14:13.761Z,49.75
2023-01-26T16:16:44.483Z,34.00
2023-01-26T16:19:20.591Z,40.25
2023-01-26T16:21:50.415Z,49.75
2023-01-26T16:24:21.516Z,49.25
2023-01-26T16:26:53.297Z,51.75
2023-01-26T16:29:23.839Z,56.25
2023-01-26T19:44:42.028Z,89.75
2023-01-26T19:47:12.405Z,79.25
2023-01-26T19:50:15.319Z,63.75
2023-01-26T19:52:50.129Z,58.00
2023-01-26T19:55:20.733Z,49.75
2023-01-26T19:58:00.198Z,51.75
2023-01-26T20:00:29.144Z,50.50
2023-01-26T20:02:59.812Z,60.25
2023-01-26T20:05:31.004Z,60.50
2023-01-26T20:08:01.714Z,14.00
2023-01-26T20:10:33.244Z,47.00
2023-01-26T20:13:04.083Z,57.75
2023-01-26T20:15:37.709Z,57.25
2023-01-26T20:18:11.923Z,54.00
2023-01-26T20:20:45.545Z,51.50
2023-01-26T20:23:19.317Z,53.00
2023-01-26T20:25:59.461Z,48.25
2023-01-26T20:28:30.517Z,56.00
2023-01-26T20:31:10.025Z,51.50
2023-01-26T20:33:42.939Z,57.75
2023-01-26T20:36:22.855Z,53.25
2023-01-26T20:38:58.370Z,47.25
2023-01-26T20:41:32.833Z,50.25
2023-01-26T20:44:06.169Z,53.75
2023-01-26T20:46:42.920Z,47.25
2023-01-26T20:49:17.917Z,43.75
2023-01-26T20:51:49.740Z,56.25
2023-01-26T20:54:20.345Z,49.00
2023-01-26T20:56:52.615Z,48.00
2023-01-26T20:59:24.951Z,45.25
2023-01-26T21:02:01.958Z,48.00
2023-01-26T21:04:36.397Z,51.50
2023-01-26T21:07:08.446Z,51.50
2023-01-26T21:09:42.714Z,54.00
2023-01-26T21:12:17.467Z,50.25
2023-01-26T21:14:48.623Z,57.75
2023-01-26T21:17:23.240Z,52.00
2023-01-26T21:19:57.020Z,51.75
2023-01-26T21:22:27.641Z,56.50
2023-01-26T21:25:01.026Z,60.50
2023-01-26T21:27:32.552Z,50.25
2023-01-26T21:30:06.023Z,52.00
2023-01-26T21:32:37.440Z,48.25
2023-01-26T21:35:11.253Z,47.00
2023-01-26T21:37:59.328Z,41.50
2023-01-26T21:40:29.984Z,48.25
2023-01-26T21:43:03.744Z,41.00
2023-01-26T21:45:36.969Z,48.75
2023-01-26T21:48:08.369Z,45.50
2023-01-26T21:50:40.220Z,49.75
2023-01-26T21:53:13.904Z,50.50
2023-01-26T21:55:47.234Z,46.00
2023-01-26T21:58:23.493Z,44.00
2023-01-26T22:04:12.090Z,50.00
2023-01-26T22:06:44.562Z,44.50
2023-01-26T22:09:18.231Z,46.50
2023-01-26T22:11:50.380Z,49.50
2023-01-26T22:14:24.334Z,46.75
2023-01-26T22:16:58.381Z,50.50
2023-01-26T22:19:44.605Z,51.00
2023-01-26T22:22:15.140Z,50.25
2023-01-26T22:24:46.038Z,56.00
2023-01-26T22:27:16.800Z,58.00
2023-01-26T22:29:47.425Z,61.75
2023-01-26T22:32:20.842Z,66.00
2023-01-26T22:34:54.500Z,59.75
2023-01-26T22:37:25.311Z,63.25
2023-01-26T22:40:16.415Z,61.50
2023-01-26T22:42:46.928Z,64.75
2023-01-26T22:45:17.787Z,61.00
2023-01-26T22:47:50.978Z,63.25
2023-01-26T22:50:22.120Z,68.00
2023-01-26T22:52:52.700Z,61.75
2023-01-26T22:55:23.798Z,65.50
2023-01-26T22:57:54.166Z,66.50
2023-01-26T23:00:24.748Z,70.75
2023-01-26T23:02:57.371Z,69.00
2023-01-26T23:05:27.940Z,63.00
2023-01-26T23:07:58.333Z,60.75
2023-01-26T23:10:33.152Z,65.25
2023-01-26T23:13:12.783Z,66.75
2023-01-26T23:15:43.718Z,68.75
2023-01-26T23:18:14.165Z,66.25
2023-01-26T23:20:44.830Z,65.00
2023-01-26T23:23:16.287Z,62.00
2023-01-26T23:25:50.257Z,63.50
2023-01-26T23:28:27.530Z,58.25
2023-01-26T23:30:59.179Z,57.50
2023-01-26T23:33:32.391Z,54.25
2023-01-26T23:36:03.800Z,61.00
2023-01-26T23:38:35.517Z,57.75
2023-01-26T23:41:06.556Z,57.50
2023-01-26T23:43:36.905Z,57.50
2023-01-26T23:46:08.939Z,64.25
2023-01-26T23:48:40.064Z,64.00
2023-01-26T23:51:12.594Z,57.50
2023-01-26T23:53:44.097Z,63.00
2023-01-26T23:56:17.428Z,68.00
2023-01-26T23:58:47.816Z,34.75
